createdAt,value
2018-09-22T00:01:52.243Z,10.53
2018-09-22T00:04:19.422Z,10.60
2018-09-22T00:06:46.675Z,10.57
2018-09-22T00:09:13.833Z,10.63
2018-09-22T00:11:41.040Z,10.62
2018-09-22T00:14:08.635Z,10.67
2018-09-22T00:16:35.939Z,10.61
2018-09-22T00:19:03.157Z,10.61
2018-09-22T00:21:30.380Z,10.60
2018-09-22T00:23:57.559Z,10.71
2018-09-22T00:26:24.744Z,10.64
2018-09-22T00:28:51.957Z,10.62
2018-09-22T00:31:19.189Z,10.55
2018-09-22T00:33:46.347Z,10.66
2018-09-22T00:36:13.591Z,10.76
2018-09-22T00:38:40.816Z,10.87
2018-09-22T00:41:08.014Z,10.97
2018-09-22T00:43:35.302Z,10.98
2018-09-22T00:46:02.487Z,11.16
2018-09-22T00:48:29.740Z,11.18
2018-09-22T00:50:56.992Z,11.21
2018-09-22T00:53:24.160Z,11.29
2018-09-22T00:55:51.336Z,11.23
2018-09-22T00:58:18.633Z,11.25
2018-09-22T01:00:45.790Z,11.25
2018-09-22T01:03:12.937Z,11.29
2018-09-22T01:05:40.152Z,11.28
2018-09-22T01:08:07.308Z,11.22
2018-09-22T01:10:34.567Z,11.32
2018-09-22T01:13:02.802Z,11.41
2018-09-22T01:15:29.997Z,11.39
2018-09-22T01:17:57.304Z,11.51
2018-09-22T01:20:24.544Z,11.47
2018-09-22T01:22:51.782Z,11.57
2018-09-22T01:25:18.989Z,11.58
2018-09-22T01:27:46.208Z,11.65
2018-09-22T01:30:13.376Z,11.67
2018-09-22T01:32:40.552Z,11.70
2018-09-22T01:35:07.811Z,11.58
2018-09-22T01:37:40.792Z,11.63
2018-09-22T01:40:08.023Z,11.63
2018-09-22T01:42:35.208Z,11.59
2018-09-22T01:45:02.415Z,11.56
2018-09-22T01:47:29.652Z,11.57
2018-09-22T01:49:56.812Z,11.53
2018-09-22T01:52:23.981Z,11.50
2018-09-22T01:54:51.232Z,11.50
2018-09-22T01:57:18.412Z,11.36
2018-09-22T01:59:45.624Z,11.28
2018-09-22T02:02:12.841Z,11.32
2018-09-22T02:04:50.398Z,11.23
2018-09-22T02:07:17.813Z,11.14
2018-09-22T02:09:44.987Z,11.20
2018-09-22T02:12:12.162Z,11.11
2018-09-22T02:14:39.367Z,11.19
2018-09-22T02:17:10.856Z,11.17
2018-09-22T02:19:38.025Z,11.04
2018-09-22T02:22:05.264Z,11.11
2018-09-22T02:24:32.566Z,11.05
2018-09-22T02:26:59.741Z,11.01
2018-09-22T02:29:27.551Z,10.97
2018-09-22T02:31:54.718Z,11.01
2018-09-22T02:34:27.636Z,10.93
2018-09-22T02:36:54.906Z,10.94
2018-09-22T02:39:22.062Z,10.87
2018-09-22T02:41:49.279Z,10.80
2018-09-22T02:44:16.469Z,10.81
2018-09-22T02:46:43.652Z,10.72
2018-09-22T02:49:10.954Z,10.81
2018-09-22T02:51:38.113Z,10.76
2018-09-22T02:54:05.282Z,10.72
2018-09-22T02:56:32.518Z,10.68
2018-09-22T02:58:59.743Z,10.71
2018-09-22T03:01:27.028Z,10.71
2018-09-22T03:03:54.225Z,10.69
2018-09-22T03:06:21.375Z,10.62
2018-09-22T03:08:48.569Z,10.61
2018-09-22T03:11:15.789Z,10.64
2018-09-22T03:13:43.033Z,10.60
2018-09-22T03:16:10.195Z,10.53
2018-09-22T03:18:37.423Z,10.52
2018-09-22T03:21:04.605Z,10.49
2018-09-22T03:23:31.782Z,10.45
2018-09-22T03:25:59.067Z,10.51
2018-09-22T03:28:26.232Z,10.57
2018-09-22T03:30:53.406Z,10.58
2018-09-22T03:33:20.619Z,10.60
2018-09-22T03:35:47.788Z,10.48
2018-09-22T03:38:14.953Z,10.47
2018-09-22T03:40:42.169Z,10.41
2018-09-22T03:43:09.362Z,10.40
2018-09-22T03:45:36.496Z,10.42
2018-09-22T03:48:03.750Z,10.44
2018-09-22T03:50:30.937Z,10.42
2018-09-22T03:52:58.141Z,10.47
2018-09-22T03:55:25.384Z,10.48
2018-09-22T03:57:52.553Z,10.41
2018-09-22T04:00:19.726Z,10.31
2018-09-22T04:02:46.942Z,10.34
2018-09-22T04:05:14.385Z,10.29
2018-09-22T04:07:41.546Z,10.18
2018-09-22T04:10:08.782Z,10.19
2018-09-22T04:12:37.014Z,10.13
2018-09-22T04:15:04.413Z,10.14
2018-09-22T04:17:31.616Z,10.26
2018-09-22T04:19:58.765Z,10.18
2018-09-22T04:22:25.965Z,10.14
2018-09-22T04:24:53.176Z,10.16
2018-09-22T04:27:21.429Z,10.12
2018-09-22T04:29:48.590Z,10.19
2018-09-22T04:32:15.808Z,10.24
2018-09-22T04:34:42.961Z,10.10
2018-09-22T04:37:10.160Z,10.14
2018-09-22T04:39:37.385Z,10.15
2018-09-22T04:42:04.580Z,10.28
2018-09-22T04:44:31.754Z,10.49
2018-09-22T04:46:58.974Z,10.52
2018-09-22T04:49:26.154Z,10.53
2018-09-22T04:51:54.373Z,10.56
2018-09-22T04:54:21.606Z,10.61
2018-09-22T04:56:48.856Z,10.73
2018-09-22T04:59:16.048Z,10.68
2018-09-22T05:01:43.242Z,10.60
2018-09-22T05:04:10.554Z,10.58
2018-09-22T05:06:37.701Z,10.52
2018-09-22T05:09:07.570Z,10.44
2018-09-22T05:11:34.746Z,10.42
2018-09-22T05:14:02.094Z,10.43
2018-09-22T05:16:29.349Z,10.46
2018-09-22T05:18:56.614Z,10.41
2018-09-22T05:21:23.764Z,10.52
2018-09-22T05:23:50.980Z,10.48
2018-09-22T05:26:18.133Z,10.52
2018-09-22T05:28:45.368Z,10.48
2018-09-22T05:31:12.596Z,10.41
2018-09-22T05:33:39.756Z,10.38
2018-09-22T05:36:06.951Z,10.39
2018-09-22T05:38:34.168Z,10.44
2018-09-22T05:41:01.429Z,10.40
2018-09-22T05:43:28.617Z,10.49
2018-09-22T05:45:55.895Z,10.50
2018-09-22T05:48:23.083Z,10.47
2018-09-22T05:50:50.259Z,10.51
2018-09-22T05:53:17.460Z,10.56
2018-09-22T05:55:44.640Z,10.55
2018-09-22T05:58:11.847Z,10.73
2018-09-22T06:00:39.769Z,10.71
2018-09-22T06:03:08.197Z,10.71
2018-09-22T06:05:35.488Z,10.72
2018-09-22T06:08:02.824Z,10.74
2018-09-22T06:10:30.061Z,10.72
2018-09-22T06:12:57.245Z,10.95
2018-09-22T06:15:25.597Z,10.92
2018-09-22T06:17:52.977Z,11.07
2018-09-22T06:20:20.732Z,11.09
2018-09-22T06:22:48.062Z,11.19
2018-09-22T06:25:15.230Z,11.28
2018-09-22T06:27:42.468Z,11.42
2018-09-22T06:30:09.761Z,11.38
2018-09-22T06:32:37.010Z,11.47
2018-09-22T06:35:04.237Z,11.55
2018-09-22T06:37:32.289Z,11.52
2018-09-22T06:40:00.112Z,11.64
2018-09-22T06:42:27.742Z,11.73
2018-09-22T06:44:55.500Z,11.81
2018-09-22T06:47:23.757Z,11.83
2018-09-22T06:49:51.729Z,11.78
2018-09-22T06:52:18.965Z,11.86
2018-09-22T06:54:46.486Z,12.04
2018-09-22T06:57:13.941Z,12.11
2018-09-22T06:59:41.164Z,12.20
2018-09-22T07:02:08.758Z,12.39
2018-09-22T07:04:39.124Z,12.65
2018-09-22T07:07:07.615Z,12.66
2018-09-22T07:09:34.793Z,12.64
2018-09-22T07:12:03.690Z,12.76
2018-09-22T07:14:30.979Z,12.94
2018-09-22T07:16:58.390Z,13.16
2018-09-22T07:19:26.332Z,13.37
2018-09-22T07:21:59.353Z,13.59
2018-09-22T07:24:26.547Z,13.45
2018-09-22T07:26:53.741Z,13.46
2018-09-22T07:29:20.948Z,13.41
2018-09-22T07:31:48.297Z,13.57
2018-09-22T07:34:16.473Z,13.69
2018-09-22T07:36:43.821Z,13.78
2018-09-22T07:39:11.729Z,13.87
2018-09-22T07:41:39.005Z,14.10
2018-09-22T07:44:06.324Z,14.18
2018-09-22T07:46:33.540Z,14.19
2018-09-22T07:49:01.577Z,14.60
2018-09-22T07:51:28.794Z,14.54
2018-09-22T07:53:56.012Z,14.47
2018-09-22T07:56:23.265Z,14.39
2018-09-22T07:58:50.575Z,14.47
2018-09-22T08:01:17.778Z,14.30
2018-09-22T08:03:44.900Z,14.35
2018-09-22T08:06:13.212Z,14.25
2018-09-22T08:08:40.460Z,14.38
2018-09-22T08:11:10.406Z,14.51
2018-09-22T08:13:37.646Z,14.60
2018-09-22T08:16:06.150Z,14.82
2018-09-22T08:18:33.333Z,14.77
2018-09-22T08:21:00.528Z,14.92
2018-09-22T08:23:28.803Z,15.23
2018-09-22T08:25:56.169Z,15.62
2018-09-22T08:28:23.484Z,15.65
2018-09-22T08:30:51.737Z,16.10
2018-09-22T08:33:18.923Z,16.04
2018-09-22T08:35:46.403Z,15.92
2018-09-22T08:38:13.605Z,15.63
2018-09-22T08:40:40.777Z,15.88
2018-09-22T08:43:07.994Z,15.62
2018-09-22T08:45:35.127Z,16.12
2018-09-22T08:48:02.308Z,16.36
2018-09-22T08:50:29.535Z,16.49
2018-09-22T08:52:56.698Z,16.32
2018-09-22T08:55:24.387Z,15.98
2018-09-22T08:57:51.705Z,16.22
2018-09-22T09:00:19.130Z,16.07
2018-09-22T09:02:46.541Z,16.08
2018-09-22T09:05:13.840Z,16.12
2018-09-22T09:07:41.042Z,16.44
2018-09-22T09:10:08.212Z,16.17
2018-09-22T09:12:35.468Z,16.30
2018-09-22T09:15:03.035Z,16.82
2018-09-22T09:17:31.577Z,17.08
2018-09-22T09:19:58.890Z,16.95
2018-09-22T09:22:34.426Z,17.27
2018-09-22T09:25:01.601Z,18.15
2018-09-22T09:27:29.046Z,17.60
2018-09-22T09:29:56.162Z,17.63
2018-09-22T09:32:23.727Z,17.31
2018-09-22T09:34:51.043Z,16.97
2018-09-22T09:37:18.430Z,16.62
2018-09-22T09:39:45.639Z,16.80
2018-09-22T09:42:12.841Z,16.78
2018-09-22T09:44:40.057Z,16.88
2018-09-22T09:47:07.278Z,16.99
2018-09-22T09:49:34.434Z,17.48
2018-09-22T09:52:01.991Z,18.35
2018-09-22T09:54:33.151Z,18.66
2018-09-22T09:57:00.358Z,18.77
2018-09-22T09:59:27.617Z,18.07
2018-09-22T10:01:54.809Z,17.27
2018-09-22T10:04:21.980Z,16.82
2018-09-22T10:06:50.178Z,16.44
2018-09-22T10:09:17.404Z,16.39
2018-09-22T10:11:44.639Z,16.29
2018-09-22T10:14:11.877Z,16.47
2018-09-22T10:16:39.089Z,16.50
2018-09-22T10:19:06.252Z,16.46
2018-09-22T10:21:33.405Z,16.49
2018-09-22T10:24:00.600Z,16.21
2018-09-22T10:26:27.778Z,16.11
2018-09-22T10:28:54.964Z,16.05
2018-09-22T10:31:22.158Z,16.06
2018-09-22T10:33:49.309Z,15.94
2018-09-22T10:36:17.013Z,15.90
2018-09-22T10:38:44.245Z,15.74
2018-09-22T10:41:11.450Z,15.78
2018-09-22T10:43:38.643Z,15.74
2018-09-22T10:46:05.868Z,15.86
2018-09-22T10:48:33.099Z,16.06
2018-09-22T10:51:01.107Z,16.33
2018-09-22T10:53:28.354Z,16.48
2018-09-22T10:55:55.493Z,16.28
2018-09-22T10:58:22.669Z,16.17
2018-09-22T11:00:49.940Z,16.04
2018-09-22T11:03:17.133Z,15.47
2018-09-22T11:05:44.238Z,15.01
2018-09-22T11:08:11.453Z,14.87
2018-09-22T11:10:38.569Z,14.90
2018-09-22T11:13:05.781Z,15.15
2018-09-22T11:15:32.979Z,15.40
2018-09-22T11:18:00.589Z,15.79
2018-09-22T11:20:27.721Z,16.36
2018-09-22T11:22:54.917Z,17.08
2018-09-22T11:25:22.137Z,17.16
2018-09-22T11:27:49.688Z,17.01
2018-09-22T11:30:16.877Z,17.13
2018-09-22T11:32:44.062Z,17.65
2018-09-22T11:35:14.518Z,18.15
2018-09-22T11:37:41.815Z,18.44
2018-09-22T11:40:08.980Z,18.31
2018-09-22T11:42:36.097Z,18.43
2018-09-22T11:45:03.334Z,18.64
2018-09-22T11:47:30.477Z,18.64
2018-09-22T11:49:57.722Z,18.69
2018-09-22T11:52:24.929Z,18.35
2018-09-22T11:54:52.100Z,18.15
2018-09-22T11:57:19.250Z,17.89
2018-09-22T11:59:46.432Z,17.93
2018-09-22T12:02:13.603Z,18.16
2018-09-22T12:04:41.840Z,18.37
2018-09-22T12:07:09.100Z,18.55
2018-09-22T12:09:36.269Z,18.93
2018-09-22T12:12:06.848Z,19.06
2018-09-22T12:14:34.185Z,18.65
2018-09-22T12:17:01.369Z,18.52
2018-09-22T12:19:28.511Z,18.32
2018-09-22T12:21:55.706Z,18.12
2018-09-22T12:24:22.849Z,18.17
2018-09-22T12:26:50.062Z,18.23
2018-09-22T12:29:17.277Z,18.40
2018-09-22T12:31:44.420Z,18.47
2018-09-22T12:34:11.590Z,18.76
2018-09-22T12:36:38.813Z,18.90
2018-09-22T12:39:08.186Z,18.91
2018-09-22T12:41:35.728Z,18.93
2018-09-22T12:44:03.050Z,19.10
2018-09-22T12:46:30.197Z,19.19
2018-09-22T12:48:57.352Z,19.22
2018-09-22T12:51:24.552Z,19.17
2018-09-22T12:53:51.702Z,19.02
2018-09-22T12:56:18.878Z,18.81
2018-09-22T12:58:46.080Z,18.55
2018-09-22T13:01:13.326Z,18.84
2018-09-22T13:03:40.489Z,18.72
2018-09-22T13:06:07.714Z,18.96
2018-09-22T13:08:34.857Z,18.83
2018-09-22T13:11:02.023Z,19.06
2018-09-22T13:13:29.296Z,19.13
2018-09-22T13:15:56.698Z,19.25
2018-09-22T13:18:23.870Z,18.95
2018-09-22T13:20:51.133Z,19.16
2018-09-22T13:23:18.301Z,19.32
2018-09-22T13:25:45.456Z,19.22
2018-09-22T13:28:12.690Z,19.21
2018-09-22T13:30:39.840Z,19.10
2018-09-22T13:33:07.037Z,19.08
2018-09-22T13:35:34.228Z,18.86
2018-09-22T13:38:01.549Z,18.71
2018-09-22T13:40:28.705Z,18.53
2018-09-22T13:42:55.896Z,18.43
2018-09-22T13:45:23.112Z,18.46
2018-09-22T13:47:50.332Z,18.52
2018-09-22T13:50:17.529Z,18.50
2018-09-22T13:52:44.673Z,18.57
2018-09-22T13:55:11.813Z,18.66
2018-09-22T13:57:39.020Z,18.65
2018-09-22T14:00:06.179Z,18.77
2018-09-22T14:02:33.317Z,18.49
2018-09-22T14:05:00.525Z,18.46
2018-09-22T14:07:27.672Z,18.24
2018-09-22T14:09:54.809Z,18.22
2018-09-22T14:12:22.030Z,18.48
2018-09-22T14:14:49.160Z,18.47
2018-09-22T14:17:16.366Z,18.33
2018-09-22T14:19:43.564Z,18.37
2018-09-22T14:22:10.731Z,18.23
2018-09-22T14:24:37.867Z,18.21
2018-09-22T14:27:05.129Z,18.17
2018-09-22T14:29:32.285Z,18.31
2018-09-22T14:31:59.424Z,18.16
2018-09-22T14:34:26.609Z,18.17
2018-09-22T14:36:53.752Z,18.00
2018-09-22T14:39:20.901Z,18.05
2018-09-22T14:41:48.085Z,18.15
2018-09-22T14:44:15.353Z,18.22
2018-09-22T14:46:42.498Z,18.27
2018-09-22T14:49:09.730Z,18.06
2018-09-22T14:51:36.869Z,18.14
2018-09-22T14:54:04.028Z,18.13
2018-09-22T14:56:31.305Z,18.14
2018-09-22T14:58:58.469Z,18.02
2018-09-22T15:01:25.634Z,18.01
2018-09-22T15:03:52.809Z,18.00
2018-09-22T15:06:19.970Z,17.91
2018-09-22T15:08:47.145Z,17.90
2018-09-22T15:11:14.341Z,17.84
2018-09-22T15:13:41.477Z,17.78
2018-09-22T15:16:08.680Z,17.82
2018-09-22T15:18:36.009Z,17.79
2018-09-22T15:21:03.145Z,17.76
2018-09-22T15:23:30.361Z,17.71
2018-09-22T15:25:57.553Z,17.70
2018-09-22T15:28:24.772Z,17.68
2018-09-22T15:30:51.973Z,17.72
2018-09-22T15:33:19.190Z,17.65
2018-09-22T15:35:46.406Z,17.52
2018-09-22T15:38:13.604Z,17.46
2018-09-22T15:40:40.856Z,17.48
2018-09-22T15:43:08.202Z,17.38
2018-09-22T15:45:39.602Z,17.34
2018-09-22T15:48:06.708Z,17.29
2018-09-22T15:50:33.906Z,17.28
2018-09-22T15:53:01.148Z,17.37
2018-09-22T15:55:28.337Z,17.29
2018-09-22T15:57:55.500Z,17.17
2018-09-22T16:00:22.680Z,17.02
2018-09-22T16:02:49.891Z,16.96
2018-09-22T16:05:17.065Z,17.00
2018-09-22T16:07:44.224Z,16.94
2018-09-22T16:10:11.465Z,16.84
2018-09-22T16:12:38.597Z,16.70
2018-09-22T16:15:05.805Z,16.68
2018-09-22T16:17:33.009Z,16.70
2018-09-22T16:20:00.245Z,16.67
2018-09-22T16:22:27.369Z,16.72
2018-09-22T16:24:54.650Z,16.53
2018-09-22T16:27:21.846Z,16.57
2018-09-22T16:29:48.981Z,16.35
2018-09-22T16:32:17.184Z,16.29
2018-09-22T16:34:44.357Z,16.21
2018-09-22T16:37:11.549Z,16.21
2018-09-22T16:39:38.741Z,16.07
2018-09-22T16:42:05.997Z,16.06
2018-09-22T16:44:33.216Z,15.99
2018-09-22T16:47:00.413Z,15.90
2018-09-22T16:49:27.706Z,15.92
2018-09-22T16:51:54.822Z,15.73
2018-09-22T16:54:22.023Z,15.68
2018-09-22T16:56:49.239Z,15.60
2018-09-22T16:59:16.397Z,15.74
2018-09-22T17:01:43.575Z,15.64
2018-09-22T17:04:10.757Z,15.53
2018-09-22T17:06:37.876Z,15.38
2018-09-22T17:09:06.641Z,15.34
2018-09-22T17:11:33.765Z,15.24
2018-09-22T17:14:00.900Z,15.15
2018-09-22T17:16:28.134Z,15.07
2018-09-22T17:18:55.310Z,15.06
2018-09-22T17:21:22.851Z,14.99
2018-09-22T17:23:50.044Z,14.85
2018-09-22T17:26:17.182Z,14.77
2018-09-22T17:28:44.335Z,14.70
2018-09-22T17:31:11.577Z,14.64
2018-09-22T17:33:38.721Z,14.63
2018-09-22T17:36:06.258Z,14.67
2018-09-22T17:38:33.441Z,14.58
2018-09-22T17:41:00.624Z,14.62
2018-09-22T17:43:27.745Z,14.58
2018-09-22T17:45:55.086Z,14.55
2018-09-22T17:48:23.205Z,14.67
2018-09-22T17:50:50.371Z,14.72
2018-09-22T17:53:17.754Z,14.62
2018-09-22T17:55:45.047Z,14.61
2018-09-22T17:58:24.898Z,14.62
2018-09-22T18:00:52.131Z,14.55
2018-09-22T18:03:19.300Z,14.50
2018-09-22T18:05:47.041Z,14.44
2018-09-22T18:08:14.224Z,14.39
2018-09-22T18:10:41.440Z,14.34
2018-09-22T18:13:08.693Z,14.32
2018-09-22T18:15:35.853Z,14.28
2018-09-22T18:18:03.097Z,14.33
2018-09-22T18:20:30.372Z,14.32
2018-09-22T18:22:57.601Z,14.28
2018-09-22T18:25:24.896Z,14.29
2018-09-22T18:27:52.080Z,14.27
2018-09-22T18:30:19.276Z,14.30
2018-09-22T18:32:46.460Z,14.25
2018-09-22T18:35:13.682Z,14.23
2018-09-22T18:37:40.825Z,14.13
2018-09-22T18:40:08.002Z,14.11
2018-09-22T18:42:35.246Z,14.05
2018-09-22T18:45:03.147Z,14.02
2018-09-22T18:47:30.649Z,13.97
2018-09-22T18:49:57.878Z,13.94
2018-09-22T18:52:25.170Z,13.92
2018-09-22T18:54:52.408Z,13.89
2018-09-22T18:57:19.804Z,13.84
2018-09-22T18:59:46.965Z,13.81
2018-09-22T19:02:14.134Z,13.81
2018-09-22T19:04:41.353Z,13.82
2018-09-22T19:07:08.514Z,13.82
2018-09-22T19:09:35.664Z,13.77
2018-09-22T19:12:03.025Z,13.79
2018-09-22T19:14:33.557Z,13.78
2018-09-22T19:17:06.052Z,13.81
2018-09-22T19:19:36.944Z,13.84
2018-09-22T19:22:10.105Z,13.83
2018-09-22T19:24:41.815Z,13.92
2018-09-22T19:27:12.481Z,14.30
2018-09-22T19:29:44.514Z,14.14
2018-09-22T19:32:15.092Z,14.29
2018-09-22T19:34:45.550Z,14.28
2018-09-22T19:37:17.678Z,14.30
2018-09-22T19:39:52.241Z,14.24
2018-09-22T19:42:32.304Z,14.30
2018-09-22T19:45:03.562Z,14.08
2018-09-22T19:48:36.745Z,13.64
2018-09-22T19:51:08.580Z,13.25
2018-09-22T19:53:36.433Z,12.90
2018-09-22T19:56:03.608Z,12.62
2018-09-22T19:58:30.763Z,12.43
2018-09-22T20:00:57.966Z,12.29
2018-09-22T20:03:25.090Z,12.13
2018-09-22T20:05:52.272Z,12.09
2018-09-22T20:08:19.449Z,11.96
2018-09-22T20:10:46.579Z,11.94
2018-09-22T20:13:13.701Z,11.90
2018-09-22T20:15:41.305Z,11.84
2018-09-22T20:18:08.438Z,11.86
2018-09-22T20:20:35.604Z,11.75
2018-09-22T20:23:02.784Z,11.76
2018-09-22T20:25:29.905Z,11.78
2018-09-22T20:27:57.013Z,11.63
2018-09-22T20:30:24.280Z,11.63
2018-09-22T20:32:51.473Z,11.68
2018-09-22T20:35:18.649Z,11.61
2018-09-22T20:37:45.819Z,11.60
2018-09-22T20:40:12.932Z,11.59
2018-09-22T20:42:40.063Z,11.65
2018-09-22T20:45:07.240Z,11.71
2018-09-22T20:47:34.352Z,11.61
2018-09-22T20:50:01.507Z,11.61
2018-09-22T20:52:28.665Z,11.58
2018-09-22T20:54:55.836Z,11.69
2018-09-22T20:57:22.970Z,11.63
2018-09-22T20:59:50.121Z,11.57
2018-09-22T21:02:17.241Z,11.62
2018-09-22T21:04:44.378Z,11.57
2018-09-22T21:07:11.544Z,11.51
2018-09-22T21:09:38.650Z,11.46
2018-09-22T21:12:05.767Z,11.43
2018-09-22T21:14:32.945Z,11.49
2018-09-22T21:17:00.065Z,11.48
2018-09-22T21:19:27.196Z,11.55
2018-09-22T21:21:54.380Z,11.51
2018-09-22T21:24:21.523Z,11.55
2018-09-22T21:26:48.647Z,11.47
2018-09-22T21:29:15.836Z,11.42
2018-09-22T21:31:42.941Z,11.45
2018-09-22T21:34:10.145Z,11.46
2018-09-22T21:36:37.316Z,11.43
2018-09-22T21:39:07.296Z,11.39
2018-09-22T21:41:34.420Z,11.35
2018-09-22T21:44:01.589Z,11.28
2018-09-22T21:46:28.741Z,11.22
2018-09-22T21:48:55.853Z,11.26
2018-09-22T21:51:23.001Z,11.26
2018-09-22T21:53:50.113Z,11.25
2018-09-22T21:56:17.217Z,11.13
2018-09-22T21:58:44.364Z,11.14
2018-09-22T22:01:17.256Z,11.03
2018-09-22T22:03:44.476Z,11.06
2018-09-22T22:06:11.769Z,11.01
2018-09-22T22:08:39.263Z,10.99
2018-09-22T22:11:07.694Z,11.04
2018-09-22T22:13:35.525Z,11.09
2018-09-22T22:16:03.099Z,11.10
2018-09-22T22:18:30.571Z,10.98
2018-09-22T22:20:59.312Z,11.04
2018-09-22T22:23:26.446Z,10.94
2018-09-22T22:25:55.001Z,10.91
2018-09-22T22:28:22.804Z,10.86
2018-09-22T22:30:50.914Z,10.90
2018-09-22T22:33:18.685Z,10.86
2018-09-22T22:35:46.635Z,10.83
2018-09-22T22:38:14.612Z,10.89
2018-09-22T22:40:42.294Z,10.76
2018-09-22T22:43:09.856Z,10.84
2018-09-22T22:45:37.786Z,10.73
2018-09-22T22:48:05.866Z,10.74
2018-09-22T22:50:33.145Z,10.74
2018-09-22T22:53:00.987Z,10.71
2018-09-22T22:55:28.152Z,10.78
2018-09-22T22:57:55.252Z,10.72
2018-09-22T23:00:22.538Z,10.82
2018-09-22T23:02:49.734Z,10.83
2018-09-22T23:05:16.864Z,10.90
2018-09-22T23:07:43.944Z,10.88
2018-09-22T23:10:11.097Z,10.85
2018-09-22T23:12:38.249Z,10.81
2018-09-22T23:15:05.477Z,10.90
2018-09-22T23:17:32.621Z,10.83
2018-09-22T23:19:59.716Z,10.87
2018-09-22T23:22:26.813Z,10.83
2018-09-22T23:24:53.954Z,10.89
2018-09-22T23:27:21.083Z,10.88
2018-09-22T23:29:48.192Z,10.87
2018-09-22T23:32:15.327Z,10.83
2018-09-22T23:34:42.420Z,10.82
2018-09-22T23:37:09.513Z,10.81
2018-09-22T23:39:36.676Z,10.76
2018-09-22T23:42:03.811Z,10.73
2018-09-22T23:44:30.951Z,10.69
2018-09-22T23:46:58.137Z,10.72
2018-09-22T23:49:25.289Z,10.77
2018-09-22T23:51:52.449Z,10.72
2018-09-22T23:54:19.597Z,10.70
2018-09-22T23:56:46.711Z,10.72
2018-09-22T23:59:13.805Z,10.67
